sensor_id;sensor_type;location;lat;lon;timestamp;pressure;altitude;pressure_sealevel;temperature;humidity
113;BME280;45999;48.808;9.182;2023-06-14T00:02:10;97570.81;;;16.74;49.87
113;BME280;45999;48.808;9.182;2023-06-14T00:04:36;97572.16;;;16.67;50.95
113;BME280;45999;48.808;9.182;2023-06-14T00:07:05;97578.06;;;16.44;51.98
113;BME280;45999;48.808;9.182;2023-06-14T00:09:33;97589.28;;;16.36;52.36
113;BME280;45999;48.808;9.182;2023-06-14T00:11:59;97584.25;;;16.44;50.88
113;BME280;45999;48.808;9.182;2023-06-14T00:14:26;97589.84;;;16.28;52.45
113;BME280;45999;48.808;9.182;2023-06-14T00:16:52;97586.84;;;16.14;52.21
113;BME280;45999;48.808;9.182;2023-06-14T00:19:23;97585.75;;;16.10;52.94
113;BME280;45999;48.808;9.182;2023-06-14T00:21:50;97591.94;;;16.16;51.42
113;BME280;45999;48.808;9.182;2023-06-14T00:24:17;97592.47;;;16.13;51.04
113;BME280;45999;48.808;9.182;2023-06-14T00:26:43;97591.63;;;16.02;51.19
113;BME280;45999;48.808;9.182;2023-06-14T00:29:10;97595.91;;;15.93;51.79
113;BME280;45999;48.808;9.182;2023-06-14T00:31:36;97584.66;;;16.01;51.80
113;BME280;45999;48.808;9.182;2023-06-14T00:34:02;97591.69;;;16.12;51.72
113;BME280;45999;48.808;9.182;2023-06-14T00:36:29;97586.84;;;16.09;51.66
113;BME280;45999;48.808;9.182;2023-06-14T00:38:55;97583.91;;;16.16;50.32
113;BME280;45999;48.808;9.182;2023-06-14T00:41:21;97582.56;;;16.18;51.28
113;BME280;45999;48.808;9.182;2023-06-14T00:43:48;97580.44;;;16.25;49.83
113;BME280;45999;48.808;9.182;2023-06-14T00:46:14;97579.09;;;16.33;50.78
113;BME280;45999;48.808;9.182;2023-06-14T00:48:40;97572.44;;;16.40;48.36
113;BME280;45999;48.808;9.182;2023-06-14T00:51:08;97574.59;;;16.48;49.43
113;BME280;45999;48.808;9.182;2023-06-14T00:53:34;97574.19;;;16.00;51.31
113;BME280;45999;48.808;9.182;2023-06-14T00:56:01;97574.50;;;16.03;51.27
113;BME280;45999;48.808;9.182;2023-06-14T00:58:27;97577.47;;;16.17;51.56
113;BME280;45999;48.808;9.182;2023-06-14T01:00:54;97579.84;;;15.98;52.70
113;BME280;45999;48.808;9.182;2023-06-14T01:03:21;97583.31;;;15.94;54.41
113;BME280;45999;48.808;9.182;2023-06-14T01:05:50;97586.22;;;15.87;54.28
113;BME280;45999;48.808;9.182;2023-06-14T01:08:31;97584.56;;;15.66;54.53
113;BME280;45999;48.808;9.182;2023-06-14T01:11:05;97586.97;;;15.68;54.26
113;BME280;45999;48.808;9.182;2023-06-14T01:13:36;97583.47;;;15.62;53.94
113;BME280;45999;48.808;9.182;2023-06-14T01:16:05;97582.84;;;15.40;55.43
113;BME280;45999;48.808;9.182;2023-06-14T01:18:32;97590.22;;;15.23;56.62
113;BME280;45999;48.808;9.182;2023-06-14T01:21:00;97590.50;;;15.27;56.55
113;BME280;45999;48.808;9.182;2023-06-14T01:23:31;97594.44;;;15.14;58.02
113;BME280;45999;48.808;9.182;2023-06-14T01:25:58;97591.50;;;15.16;55.21
113;BME280;45999;48.808;9.182;2023-06-14T01:28:28;97591.50;;;15.16;57.77
113;BME280;45999;48.808;9.182;2023-06-14T01:30:58;97589.91;;;15.15;55.97
113;BME280;45999;48.808;9.182;2023-06-14T01:33:29;97593.13;;;15.17;56.63
113;BME280;45999;48.808;9.182;2023-06-14T01:35:57;97591.41;;;15.42;52.53
113;BME280;45999;48.808;9.182;2023-06-14T01:38:25;97592.22;;;15.38;56.89
113;BME280;45999;48.808;9.182;2023-06-14T01:40:54;97590.66;;;15.47;52.59
113;BME280;45999;48.808;9.182;2023-06-14T01:43:22;97597.91;;;15.61;53.11
113;BME280;45999;48.808;9.182;2023-06-14T01:45:51;97593.31;;;15.47;53.98
113;BME280;45999;48.808;9.182;2023-06-14T01:48:19;97586.06;;;15.42;52.53
113;BME280;45999;48.808;9.182;2023-06-14T01:50:48;97586.31;;;15.41;52.44
113;BME280;45999;48.808;9.182;2023-06-14T01:53:14;97583.91;;;15.39;52.54
113;BME280;45999;48.808;9.182;2023-06-14T01:55:41;97594.88;;;15.38;51.70
113;BME280;45999;48.808;9.182;2023-06-14T01:58:10;97588.72;;;15.37;51.65
113;BME280;45999;48.808;9.182;2023-06-14T02:00:36;97587.66;;;15.43;51.71
113;BME280;45999;48.808;9.182;2023-06-14T02:03:03;97585.78;;;15.39;52.15
113;BME280;45999;48.808;9.182;2023-06-14T02:05:30;97588.97;;;15.41;54.08
113;BME280;45999;48.808;9.182;2023-06-14T02:07:56;97591.78;;;15.19;55.00
113;BME280;45999;48.808;9.182;2023-06-14T02:10:23;97597.91;;;15.10;54.70
113;BME280;45999;48.808;9.182;2023-06-14T02:12:49;97592.34;;;15.21;53.55
113;BME280;45999;48.808;9.182;2023-06-14T02:15:16;97588.56;;;15.12;55.75
113;BME280;45999;48.808;9.182;2023-06-14T02:17:45;97598.53;;;14.85;55.61
113;BME280;45999;48.808;9.182;2023-06-14T02:20:12;97598.00;;;14.88;57.19
113;BME280;45999;48.808;9.182;2023-06-14T02:22:39;97603.41;;;14.93;57.38
113;BME280;45999;48.808;9.182;2023-06-14T02:25:06;97598.44;;;14.75;57.54
113;BME280;45999;48.808;9.182;2023-06-14T02:27:33;97603.25;;;14.73;57.33
113;BME280;45999;48.808;9.182;2023-06-14T02:29:59;97595.22;;;14.73;57.37
113;BME280;45999;48.808;9.182;2023-06-14T02:32:26;97591.06;;;14.87;55.08
113;BME280;45999;48.808;9.182;2023-06-14T02:34:53;97593.50;;;14.94;54.09
113;BME280;45999;48.808;9.182;2023-06-14T02:37:20;97600.72;;;14.93;54.80
113;BME280;45999;48.808;9.182;2023-06-14T02:39:46;97597.53;;;14.96;53.64
113;BME280;45999;48.808;9.182;2023-06-14T02:42:13;97597.03;;;14.99;52.94
113;BME280;45999;48.808;9.182;2023-06-14T02:44:39;97590.06;;;14.98;53.23
113;BME280;45999;48.808;9.182;2023-06-14T02:47:06;97583.44;;;15.06;53.24
113;BME280;45999;48.808;9.182;2023-06-14T02:49:32;97592.44;;;14.95;53.66
113;BME280;45999;48.808;9.182;2023-06-14T02:51:58;97588.44;;;14.97;53.65
113;BME280;45999;48.808;9.182;2023-06-14T02:54:25;97593.84;;;15.07;54.43
113;BME280;45999;48.808;9.182;2023-06-14T02:56:51;97583.13;;;15.07;53.35
113;BME280;45999;48.808;9.182;2023-06-14T02:59:17;97593.31;;;15.05;55.23
113;BME280;45999;48.808;9.182;2023-06-14T03:01:44;97601.81;;;14.97;54.15
113;BME280;45999;48.808;9.182;2023-06-14T03:04:11;97596.47;;;14.97;54.33
113;BME280;45999;48.808;9.182;2023-06-14T03:06:37;97599.38;;;14.91;55.02
113;BME280;45999;48.808;9.182;2023-06-14T03:09:04;97597.41;;;14.76;54.79
113;BME280;45999;48.808;9.182;2023-06-14T03:11:31;97598.72;;;14.74;54.92
113;BME280;45999;48.808;9.182;2023-06-14T03:13:58;97608.59;;;14.73;54.69
113;BME280;45999;48.808;9.182;2023-06-14T03:16:25;97609.09;;;14.70;55.20
113;BME280;45999;48.808;9.182;2023-06-14T03:18:54;97608.09;;;14.76;56.58
113;BME280;45999;48.808;9.182;2023-06-14T03:21:20;97604.28;;;14.67;55.64
113;BME280;45999;48.808;9.182;2023-06-14T03:23:47;97612.84;;;14.69;56.79
113;BME280;45999;48.808;9.182;2023-06-14T03:26:14;97615.56;;;14.74;56.13
113;BME280;45999;48.808;9.182;2023-06-14T03:28:43;97619.34;;;14.78;56.56
113;BME280;45999;48.808;9.182;2023-06-14T03:31:10;97617.16;;;14.75;56.67
113;BME280;45999;48.808;9.182;2023-06-14T03:33:37;97623.84;;;14.73;56.86
113;BME280;45999;48.808;9.182;2023-06-14T03:36:04;97628.38;;;14.67;56.32
113;BME280;45999;48.808;9.182;2023-06-14T03:38:31;97628.88;;;14.64;56.42
113;BME280;45999;48.808;9.182;2023-06-14T03:40:57;97633.69;;;14.62;57.29
113;BME280;45999;48.808;9.182;2023-06-14T03:43:24;97631.28;;;14.66;58.62
113;BME280;45999;48.808;9.182;2023-06-14T03:45:51;97632.06;;;14.35;57.70
113;BME280;45999;48.808;9.182;2023-06-14T03:48:17;97632.53;;;14.53;56.96
113;BME280;45999;48.808;9.182;2023-06-14T03:50:43;97639.97;;;14.51;59.04
113;BME280;45999;48.808;9.182;2023-06-14T03:53:10;97641.91;;;14.56;58.56
113;BME280;45999;48.808;9.182;2023-06-14T03:55:36;97649.41;;;14.59;57.65
113;BME280;45999;48.808;9.182;2023-06-14T03:58:04;97643.28;;;14.58;58.75
113;BME280;45999;48.808;9.182;2023-06-14T04:00:31;97646.97;;;14.57;57.63
113;BME280;45999;48.808;9.182;2023-06-14T04:02:58;97652.91;;;14.59;59.28
113;BME280;45999;48.808;9.182;2023-06-14T04:05:24;97647.31;;;14.61;61.73
113;BME280;45999;48.808;9.182;2023-06-14T04:07:51;97645.78;;;14.43;58.14
113;BME280;45999;48.808;9.182;2023-06-14T04:10:20;97659.91;;;14.65;58.11
113;BME280;45999;48.808;9.182;2023-06-14T04:12:47;97656.03;;;14.51;60.30
113;BME280;45999;48.808;9.182;2023-06-14T04:15:13;97651.34;;;14.63;57.86
113;BME280;45999;48.808;9.182;2023-06-14T04:17:40;97659.41;;;14.68;58.03
113;BME280;45999;48.808;9.182;2023-06-14T04:20:07;97660.16;;;14.64;58.01
113;BME280;45999;48.808;9.182;2023-06-14T04:22:35;97663.59;;;14.59;58.35
113;BME280;45999;48.808;9.182;2023-06-14T04:25:02;97664.06;;;14.51;58.66
113;BME280;45999;48.808;9.182;2023-06-14T04:27:28;97664.53;;;14.48;58.71
113;BME280;45999;48.808;9.182;2023-06-14T04:29:56;97672.94;;;14.57;58.21
113;BME280;45999;48.808;9.182;2023-06-14T04:32:25;97663.66;;;14.64;59.93
113;BME280;45999;48.808;9.182;2023-06-14T04:34:57;97677.16;;;14.79;59.42
113;BME280;45999;48.808;9.182;2023-06-14T04:37:27;97667.84;;;14.87;58.59
113;BME280;45999;48.808;9.182;2023-06-14T04:39:55;97673.53;;;14.90;58.98
113;BME280;45999;48.808;9.182;2023-06-14T04:42:22;97660.16;;;14.95;58.27
113;BME280;45999;48.808;9.182;2023-06-14T04:44:51;97664.25;;;15.03;57.74
113;BME280;45999;48.808;9.182;2023-06-14T04:47:21;97680.72;;;15.21;57.04
113;BME280;45999;48.808;9.182;2023-06-14T04:49:47;97682.25;;;15.12;57.58
113;BME280;45999;48.808;9.182;2023-06-14T04:52:15;97690.06;;;15.19;58.08
113;BME280;45999;48.808;9.182;2023-06-14T04:54:42;97684.22;;;15.27;57.69
113;BME280;45999;48.808;9.182;2023-06-14T04:57:09;97689.75;;;15.15;57.78
113;BME280;45999;48.808;9.182;2023-06-14T04:59:40;97698.16;;;15.24;58.81
113;BME280;45999;48.808;9.182;2023-06-14T05:02:06;97702.09;;;15.16;58.08
113;BME280;45999;48.808;9.182;2023-06-14T05:04:33;97694.25;;;15.36;58.44
113;BME280;45999;48.808;9.182;2023-06-14T05:07:05;97700.88;;;15.70;57.31
113;BME280;45999;48.808;9.182;2023-06-14T05:09:31;97702.38;;;15.98;56.60
113;BME280;45999;48.808;9.182;2023-06-14T05:11:58;97707.06;;;16.37;56.23
113;BME280;45999;48.808;9.182;2023-06-14T05:14:25;97702.59;;;16.63;54.29
113;BME280;45999;48.808;9.182;2023-06-14T05:16:52;97700.78;;;16.98;53.87
113;BME280;45999;48.808;9.182;2023-06-14T05:19:19;97691.91;;;17.38;51.25
113;BME280;45999;48.808;9.182;2023-06-14T05:21:46;97707.00;;;18.27;49.98
113;BME280;45999;48.808;9.182;2023-06-14T05:24:13;97697.19;;;18.51;48.10
113;BME280;45999;48.808;9.182;2023-06-14T05:26:39;97694.28;;;17.79;49.78
113;BME280;45999;48.808;9.182;2023-06-14T05:29:06;97702.19;;;18.14;49.48
113;BME280;45999;48.808;9.182;2023-06-14T05:31:32;97708.81;;;17.68;50.13
113;BME280;45999;48.808;9.182;2023-06-14T05:33:58;97702.13;;;17.11;51.67
113;BME280;45999;48.808;9.182;2023-06-14T05:36:25;97708.53;;;17.00;53.31
113;BME280;45999;48.808;9.182;2023-06-14T05:38:53;97710.16;;;17.21;52.97
113;BME280;45999;48.808;9.182;2023-06-14T05:41:25;97706.63;;;16.70;54.08
113;BME280;45999;48.808;9.182;2023-06-14T05:43:53;97709.34;;;16.75;54.00
113;BME280;45999;48.808;9.182;2023-06-14T05:46:20;97712.03;;;16.90;54.59
113;BME280;45999;48.808;9.182;2023-06-14T05:48:50;97710.97;;;17.06;54.41
113;BME280;45999;48.808;9.182;2023-06-14T05:51:16;97702.09;;;17.31;53.23
113;BME280;45999;48.808;9.182;2023-06-14T05:53:44;97702.94;;;17.41;52.86
113;BME280;45999;48.808;9.182;2023-06-14T05:56:11;97705.88;;;17.60;51.92
113;BME280;45999;48.808;9.182;2023-06-14T05:58:37;97707.72;;;17.84;51.01
113;BME280;45999;48.808;9.182;2023-06-14T06:01:03;97710.44;;;17.24;51.94
113;BME280;45999;48.808;9.182;2023-06-14T06:03:30;97717.16;;;17.52;52.74
113;BME280;45999;48.808;9.182;2023-06-14T06:05:57;97707.47;;;17.66;53.66
113;BME280;45999;48.808;9.182;2023-06-14T06:08:24;97708.00;;;17.78;52.77
113;BME280;45999;48.808;9.182;2023-06-14T06:10:50;97711.47;;;17.88;52.71
113;BME280;45999;48.808;9.182;2023-06-14T06:13:16;97713.28;;;18.03;49.71
113;BME280;45999;48.808;9.182;2023-06-14T06:15:43;97716.72;;;18.18;51.09
113;BME280;45999;48.808;9.182;2023-06-14T06:18:10;97722.59;;;18.35;50.04
113;BME280;45999;48.808;9.182;2023-06-14T06:20:36;97717.53;;;18.19;50.02
113;BME280;45999;48.808;9.182;2023-06-14T06:23:02;97724.19;;;18.31;51.14
113;BME280;45999;48.808;9.182;2023-06-14T06:25:29;97721.44;;;18.56;49.41
113;BME280;45999;48.808;9.182;2023-06-14T06:27:57;97730.56;;;18.55;49.07
113;BME280;45999;48.808;9.182;2023-06-14T06:30:25;97727.84;;;18.60;48.33
113;BME280;45999;48.808;9.182;2023-06-14T06:32:51;97730.84;;;18.59;49.07
113;BME280;45999;48.808;9.182;2023-06-14T06:35:18;97727.44;;;18.33;50.26
113;BME280;45999;48.808;9.182;2023-06-14T06:37:44;97728.69;;;18.56;50.08
113;BME280;45999;48.808;9.182;2023-06-14T06:40:11;97727.94;;;18.45;50.18
113;BME280;45999;48.808;9.182;2023-06-14T06:42:37;97735.94;;;18.55;50.79
113;BME280;45999;48.808;9.182;2023-06-14T06:45:04;97734.00;;;18.71;50.82
113;BME280;45999;48.808;9.182;2023-06-14T06:47:31;97722.97;;;18.67;49.61
113;BME280;45999;48.808;9.182;2023-06-14T06:49:57;97728.28;;;18.77;47.68
113;BME280;45999;48.808;9.182;2023-06-14T06:52:24;97743.09;;;18.80;48.41
113;BME280;45999;48.808;9.182;2023-06-14T06:54:50;97741.31;;;19.04;47.93
113;BME280;45999;48.808;9.182;2023-06-14T06:57:20;97748.41;;;19.33;45.29
113;BME280;45999;48.808;9.182;2023-06-14T06:59:47;97750.75;;;19.06;46.59
113;BME280;45999;48.808;9.182;2023-06-14T07:02:14;97754.38;;;18.87;47.27
113;BME280;45999;48.808;9.182;2023-06-14T07:04:40;97761.22;;;18.64;47.38
113;BME280;45999;48.808;9.182;2023-06-14T07:07:07;97764.88;;;18.83;47.22
113;BME280;45999;48.808;9.182;2023-06-14T07:09:34;97761.97;;;18.75;48.45
113;BME280;45999;48.808;9.182;2023-06-14T07:12:01;97762.53;;;19.15;49.07
113;BME280;45999;48.808;9.182;2023-06-14T07:14:27;97760.53;;;19.31;47.28
113;BME280;45999;48.808;9.182;2023-06-14T07:16:55;97765.38;;;19.34;47.55
113;BME280;45999;48.808;9.182;2023-06-14T07:19:21;97767.75;;;19.40;47.35
113;BME280;45999;48.808;9.182;2023-06-14T07:21:48;97769.63;;;19.45;47.75
113;BME280;45999;48.808;9.182;2023-06-14T07:24:14;97770.78;;;19.34;46.27
113;BME280;45999;48.808;9.182;2023-06-14T07:26:40;97772.78;;;19.52;44.87
113;BME280;45999;48.808;9.182;2023-06-14T07:29:07;97776.81;;;19.54;45.22
113;BME280;45999;48.808;9.182;2023-06-14T07:31:33;97778.81;;;19.73;44.94
113;BME280;45999;48.808;9.182;2023-06-14T07:34:00;97783.06;;;19.78;46.51
113;BME280;45999;48.808;9.182;2023-06-14T07:36:26;97788.13;;;19.85;44.78
113;BME280;45999;48.808;9.182;2023-06-14T07:38:52;97788.50;;;19.40;46.41
113;BME280;45999;48.808;9.182;2023-06-14T07:41:19;97787.03;;;19.58;47.21
113;BME280;45999;48.808;9.182;2023-06-14T07:43:45;97790.09;;;19.80;45.62
113;BME280;45999;48.808;9.182;2023-06-14T07:46:11;97791.63;;;19.86;45.64
113;BME280;45999;48.808;9.182;2023-06-14T07:48:38;97788.19;;;20.09;45.54
113;BME280;45999;48.808;9.182;2023-06-14T07:51:04;97785.09;;;20.44;44.18
113;BME280;45999;48.808;9.182;2023-06-14T07:53:31;97791.44;;;20.11;45.38
113;BME280;45999;48.808;9.182;2023-06-14T07:55:57;97798.03;;;19.95;46.28
113;BME280;45999;48.808;9.182;2023-06-14T07:58:24;97789.53;;;20.06;47.25
113;BME280;45999;48.808;9.182;2023-06-14T08:00:50;97795.72;;;20.12;47.27
113;BME280;45999;48.808;9.182;2023-06-14T08:03:16;97779.81;;;20.10;46.58
113;BME280;45999;48.808;9.182;2023-06-14T08:05:43;97788.84;;;19.96;48.24
113;BME280;45999;48.808;9.182;2023-06-14T08:08:09;97784.69;;;20.08;48.21
113;BME280;45999;48.808;9.182;2023-06-14T08:10:36;97781.66;;;20.15;47.39
113;BME280;45999;48.808;9.182;2023-06-14T08:13:02;97796.09;;;20.00;47.21
113;BME280;45999;48.808;9.182;2023-06-14T08:15:28;97791.69;;;19.81;47.85
113;BME280;45999;48.808;9.182;2023-06-14T08:17:55;97785.84;;;20.26;47.69
113;BME280;45999;48.808;9.182;2023-06-14T08:20:21;97783.16;;;20.49;48.56
113;BME280;45999;48.808;9.182;2023-06-14T08:22:48;97781.84;;;20.23;48.69
113;BME280;45999;48.808;9.182;2023-06-14T08:25:14;97782.09;;;20.69;45.88
113;BME280;45999;48.808;9.182;2023-06-14T08:27:41;97784.34;;;21.04;46.51
113;BME280;45999;48.808;9.182;2023-06-14T08:30:08;97792.41;;;20.85;46.01
113;BME280;45999;48.808;9.182;2023-06-14T08:32:35;97790.50;;;21.09;45.41
113;BME280;45999;48.808;9.182;2023-06-14T08:35:01;97797.84;;;21.04;45.77
113;BME280;45999;48.808;9.182;2023-06-14T08:37:27;97793.75;;;21.06;44.85
113;BME280;45999;48.808;9.182;2023-06-14T08:39:54;97793.28;;;20.81;44.96
113;BME280;45999;48.808;9.182;2023-06-14T08:42:21;97790.63;;;21.18;44.62
113;BME280;45999;48.808;9.182;2023-06-14T08:44:50;97798.75;;;20.29;46.24
113;BME280;45999;48.808;9.182;2023-06-14T08:47:16;97792.66;;;20.65;44.77
113;BME280;45999;48.808;9.182;2023-06-14T08:49:46;97793.25;;;20.62;44.93
113;BME280;45999;48.808;9.182;2023-06-14T08:52:15;97793.25;;;21.23;45.37
113;BME280;45999;48.808;9.182;2023-06-14T08:54:46;97800.91;;;21.53;44.89
113;BME280;45999;48.808;9.182;2023-06-14T08:57:14;97787.94;;;20.99;44.74
113;BME280;45999;48.808;9.182;2023-06-14T08:59:46;97796.06;;;21.50;44.33
113;BME280;45999;48.808;9.182;2023-06-14T09:02:14;97799.50;;;21.74;43.54
113;BME280;45999;48.808;9.182;2023-06-14T09:04:43;97803.44;;;21.63;43.26
113;BME280;45999;48.808;9.182;2023-06-14T09:07:10;97797.22;;;21.62;42.78
113;BME280;45999;48.808;9.182;2023-06-14T09:09:41;97797.56;;;22.06;42.89
113;BME280;45999;48.808;9.182;2023-06-14T09:12:10;97792.59;;;22.13;42.67
113;BME280;45999;48.808;9.182;2023-06-14T09:14:37;97796.19;;;22.36;43.13
113;BME280;45999;48.808;9.182;2023-06-14T09:17:06;97798.31;;;22.39;41.63
113;BME280;45999;48.808;9.182;2023-06-14T09:19:33;97789.81;;;22.45;42.03
113;BME280;45999;48.808;9.182;2023-06-14T09:22:00;97794.13;;;22.46;41.26
113;BME280;45999;48.808;9.182;2023-06-14T09:24:27;97801.47;;;22.59;41.98
113;BME280;45999;48.808;9.182;2023-06-14T09:26:53;97792.91;;;22.52;42.71
113;BME280;45999;48.808;9.182;2023-06-14T09:29:20;97790.88;;;22.85;41.65
113;BME280;45999;48.808;9.182;2023-06-14T09:31:46;97798.22;;;22.84;41.05
113;BME280;45999;48.808;9.182;2023-06-14T09:34:13;97791.78;;;22.94;39.72
113;BME280;45999;48.808;9.182;2023-06-14T09:36:40;97799.75;;;22.50;39.59
113;BME280;45999;48.808;9.182;2023-06-14T09:39:07;97802.69;;;22.08;41.53
113;BME280;45999;48.808;9.182;2023-06-14T09:41:34;97798.91;;;22.90;41.19
113;BME280;45999;48.808;9.182;2023-06-14T09:44:03;97799.44;;;22.78;40.88
113;BME280;45999;48.808;9.182;2023-06-14T09:46:30;97801.91;;;22.88;41.60
113;BME280;45999;48.808;9.182;2023-06-14T09:48:57;97806.28;;;23.11;40.66
113;BME280;45999;48.808;9.182;2023-06-14T09:51:24;97799.50;;;23.00;38.90
113;BME280;45999;48.808;9.182;2023-06-14T09:53:52;97806.66;;;22.69;40.34
113;BME280;45999;48.808;9.182;2023-06-14T09:56:28;97801.31;;;21.60;41.18
113;BME280;45999;48.808;9.182;2023-06-14T09:58:56;97805.38;;;21.94;41.00
113;BME280;45999;48.808;9.182;2023-06-14T10:01:28;97797.44;;;21.66;42.14
113;BME280;45999;48.808;9.182;2023-06-14T10:04:06;97797.47;;;21.98;41.08
113;BME280;45999;48.808;9.182;2023-06-14T10:06:37;97801.97;;;22.02;41.32
113;BME280;45999;48.808;9.182;2023-06-14T10:09:07;97801.81;;;21.80;41.00
113;BME280;45999;48.808;9.182;2023-06-14T10:11:35;97793.88;;;22.16;38.94
113;BME280;45999;48.808;9.182;2023-06-14T10:14:04;97788.19;;;22.71;36.95
113;BME280;45999;48.808;9.182;2023-06-14T10:16:36;97803.94;;;23.45;37.21
113;BME280;45999;48.808;9.182;2023-06-14T10:19:16;97793.06;;;23.45;37.45
113;BME280;45999;48.808;9.182;2023-06-14T10:24:16;97800.13;;;22.30;36.92
113;BME280;45999;48.808;9.182;2023-06-14T10:26:57;97792.31;;;22.69;40.05
113;BME280;45999;48.808;9.182;2023-06-14T10:29:24;97785.34;;;22.90;36.86
113;BME280;45999;48.808;9.182;2023-06-14T10:31:57;97788.97;;;22.45;36.13
113;BME280;45999;48.808;9.182;2023-06-14T10:34:27;97791.75;;;23.21;36.03
113;BME280;45999;48.808;9.182;2023-06-14T10:37:04;97782.66;;;23.39;35.55
113;BME280;45999;48.808;9.182;2023-06-14T10:39:33;97784.81;;;23.94;36.38
113;BME280;45999;48.808;9.182;2023-06-14T10:42:02;97782.59;;;23.96;35.68
113;BME280;45999;48.808;9.182;2023-06-14T10:47:00;97788.81;;;23.97;34.10
113;BME280;45999;48.808;9.182;2023-06-14T10:49:43;97791.31;;;24.46;34.21
113;BME280;45999;48.808;9.182;2023-06-14T10:52:17;97775.25;;;24.66;34.78
113;BME280;45999;48.808;9.182;2023-06-14T10:55:02;97784.56;;;24.91;33.90
113;BME280;45999;48.808;9.182;2023-06-14T10:57:31;97789.75;;;24.23;31.40
113;BME280;45999;48.808;9.182;2023-06-14T10:59:59;97781.72;;;24.48;33.97
113;BME280;45999;48.808;9.182;2023-06-14T11:02:41;97796.09;;;24.49;32.97
113;BME280;45999;48.808;9.182;2023-06-14T11:05:15;97782.75;;;24.61;32.59
113;BME280;45999;48.808;9.182;2023-06-14T11:10:40;97791.97;;;24.21;32.03
113;BME280;45999;48.808;9.182;2023-06-14T11:13:08;97784.31;;;23.70;30.72
113;BME280;45999;48.808;9.182;2023-06-14T11:15:38;97776.78;;;23.67;31.62
113;BME280;45999;48.808;9.182;2023-06-14T11:18:09;97781.16;;;23.99;30.99
113;BME280;45999;48.808;9.182;2023-06-14T11:20:36;97779.81;;;24.18;31.73
113;BME280;45999;48.808;9.182;2023-06-14T11:23:03;97773.47;;;24.62;31.06
113;BME280;45999;48.808;9.182;2023-06-14T11:25:30;97773.59;;;24.57;30.77
113;BME280;45999;48.808;9.182;2023-06-14T11:27:57;97780.28;;;24.51;32.30
113;BME280;45999;48.808;9.182;2023-06-14T11:30:25;97777.47;;;24.64;31.50
113;BME280;45999;48.808;9.182;2023-06-14T11:32:52;97783.63;;;24.48;31.30
113;BME280;45999;48.808;9.182;2023-06-14T11:35:21;97765.50;;;24.35;32.31
113;BME280;45999;48.808;9.182;2023-06-14T11:37:49;97787.63;;;24.50;31.11
113;BME280;45999;48.808;9.182;2023-06-14T11:40:17;97778.28;;;24.34;31.86
113;BME280;45999;48.808;9.182;2023-06-14T11:42:43;97784.94;;;24.20;32.37
113;BME280;45999;48.808;9.182;2023-06-14T11:45:11;97780.41;;;23.85;33.21
113;BME280;45999;48.808;9.182;2023-06-14T11:47:39;97781.78;;;23.52;32.13
113;BME280;45999;48.808;9.182;2023-06-14T11:50:07;97782.22;;;23.89;31.17
113;BME280;45999;48.808;9.182;2023-06-14T11:52:35;97783.13;;;24.07;31.47
113;BME280;45999;48.808;9.182;2023-06-14T11:55:02;97773.31;;;24.28;30.88
113;BME280;45999;48.808;9.182;2023-06-14T11:57:30;97778.88;;;24.23;31.86
113;BME280;45999;48.808;9.182;2023-06-14T11:59:56;97777.50;;;24.34;32.18
113;BME280;45999;48.808;9.182;2023-06-14T12:02:23;97765.06;;;24.50;31.11
113;BME280;45999;48.808;9.182;2023-06-14T12:04:50;97772.66;;;23.12;31.58
113;BME280;45999;48.808;9.182;2023-06-14T12:07:18;97774.34;;;23.22;31.05
113;BME280;45999;48.808;9.182;2023-06-14T12:12:21;97769.44;;;23.10;32.15
113;BME280;45999;48.808;9.182;2023-06-14T12:14:50;97763.16;;;23.37;31.95
113;BME280;45999;48.808;9.182;2023-06-14T12:17:18;97771.75;;;24.05;32.80
113;BME280;45999;48.808;9.182;2023-06-14T12:19:46;97775.81;;;24.16;31.94
113;BME280;45999;48.808;9.182;2023-06-14T12:22:13;97776.66;;;23.72;31.48
113;BME280;45999;48.808;9.182;2023-06-14T12:24:42;97779.69;;;23.71;32.02
113;BME280;45999;48.808;9.182;2023-06-14T12:27:09;97777.22;;;23.61;33.96
113;BME280;45999;48.808;9.182;2023-06-14T12:29:37;97773.44;;;23.48;32.83
113;BME280;45999;48.808;9.182;2023-06-14T12:32:04;97773.03;;;23.33;32.11
113;BME280;45999;48.808;9.182;2023-06-14T12:34:30;97762.84;;;23.60;31.97
113;BME280;45999;48.808;9.182;2023-06-14T12:36:56;97766.72;;;23.90;32.45
113;BME280;45999;48.808;9.182;2023-06-14T12:39:23;97778.38;;;24.12;32.25
113;BME280;45999;48.808;9.182;2023-06-14T12:41:50;97769.31;;;23.95;32.19
113;BME280;45999;48.808;9.182;2023-06-14T12:44:17;97763.22;;;23.45;32.19
113;BME280;45999;48.808;9.182;2023-06-14T12:46:43;97764.09;;;23.54;32.97
113;BME280;45999;48.808;9.182;2023-06-14T12:49:11;97767.81;;;23.89;32.92
113;BME280;45999;48.808;9.182;2023-06-14T12:51:40;97769.13;;;23.91;32.01
113;BME280;45999;48.808;9.182;2023-06-14T12:54:06;97765.44;;;24.18;31.97
113;BME280;45999;48.808;9.182;2023-06-14T12:56:33;97761.41;;;24.46;31.01
113;BME280;45999;48.808;9.182;2023-06-14T12:58:59;97759.78;;;24.45;31.49
113;BME280;45999;48.808;9.182;2023-06-14T13:01:26;97769.97;;;24.70;30.83
113;BME280;45999;48.808;9.182;2023-06-14T13:03:52;97764.38;;;24.66;31.02
113;BME280;45999;48.808;9.182;2023-06-14T13:06:22;97772.84;;;24.65;30.05
113;BME280;45999;48.808;9.182;2023-06-14T13:08:49;97769.88;;;24.14;31.22
113;BME280;45999;48.808;9.182;2023-06-14T13:11:16;97772.44;;;24.10;32.07
113;BME280;45999;48.808;9.182;2023-06-14T13:13:42;97773.59;;;24.18;31.61
113;BME280;45999;48.808;9.182;2023-06-14T13:16:09;97760.06;;;24.35;30.54
113;BME280;45999;48.808;9.182;2023-06-14T13:18:38;97771.41;;;24.67;32.81
113;BME280;45999;48.808;9.182;2023-06-14T13:21:04;97768.16;;;24.18;31.48
113;BME280;45999;48.808;9.182;2023-06-14T13:23:31;97766.94;;;24.32;32.13
113;BME280;45999;48.808;9.182;2023-06-14T13:25:57;97774.16;;;24.06;32.11
113;BME280;45999;48.808;9.182;2023-06-14T13:28:23;97768.69;;;24.28;31.46
113;BME280;45999;48.808;9.182;2023-06-14T13:30:50;97766.50;;;24.95;30.73
113;BME280;45999;48.808;9.182;2023-06-14T13:33:16;97756.84;;;24.72;31.90
113;BME280;45999;48.808;9.182;2023-06-14T13:35:42;97756.69;;;24.77;30.83